MST,Max TemperatureF,Mean TemperatureF,Min TemperatureF,Max Dew PointF,MeanDew PointF,Min DewpointF,Max Humidity, Mean Humidity, Min Humidity, Max Sea Level PressureIn, Mean Sea Level PressureIn, Min Sea Level PressureIn, Max VisibilityMiles, Mean VisibilityMiles, Min VisibilityMiles, Max Wind SpeedMPH, Mean Wind SpeedMPH, Max Gust SpeedMPH,PrecipitationIn, CloudCover, Events, WindDirDegrees
2013-11-1,50,39,29,37,29,21,87,61,36,30.17,29.97,29.73,10,10,10,44,25,59,0.01,2,Rain,320
2013-11-2,58,45,32,32,26,22,64,52,32,30.17,29.98,29.54,10,10,10,21,10,28,0.00,0,,201
2013-11-3,53,44,35,33,30,24,78,56,33,29.84,29.64,29.51,10,10,10,26,13,36,0.00,2,,333
2013-11-4,43,36,29,26,23,19,79,58,41,30.17,30.03,29.88,10,10,10,14,9,,0.00,5,Rain,356
2013-11-5,32,24,16,29,25,14,100,91,75,30.26,30.14,30.06,10,4,0,9,5,,0.20,6,Fog-Snow,108
2013-11-6,43,30,18,32,23,13,85,72,51,30.39,30.24,30.15,10,10,10,15,5,,0.00,3,Rain,285
2013-11-7,45,34,23,34,27,19,82,73,46,30.43,30.25,29.81,10,10,10,16,6,,0.00,2,,197
2013-11-8,53,45,37,36,28,23,76,54,30,29.99,29.77,29.64,10,10,10,39,15,46,0.00,3,,309
2013-11-9,46,38,30,31,26,22,77,59,44,30.37,30.23,29.98,10,10,10,23,7,,0.00,4,,325
2013-11-10,55,42,28,32,27,22,93,64,38,30.32,30.20,30.11,10,10,10,14,9,,0.00,3,,67
2013-11-11,26,20,15,23,14,12,93,82,74,30.81,30.52,30.25,10,8,1,15,9,,0.01,7,Snow,52
2013-11-12,51,32,13,35,24,10,89,70,52,30.75,30.50,30.20,10,10,10,13,5,,0.00,0,,219
2013-11-13,61,46,31,40,31,22,77,54,30,30.18,30.07,30.00,10,10,10,16,7,,0.00,3,Rain,331
2013-11-14,54,44,34,39,30,22,78,60,30,30.05,29.95,29.79,10,10,10,15,9,,0.01,2,Rain,293
2013-11-15,52,40,29,33,28,24,82,69,44,29.75,29.56,29.38,10,10,10,13,4,,0.00,1,,268
2013-11-16,46,36,26,31,28,22,86,70,51,29.42,29.36,29.31,10,10,10,16,6,,0.00,3,,319
2013-11-17,45,34,23,31,22,15,93,62,30,30.10,29.79,29.42,10,10,6,30,15,43,0.00,3,Rain-Snow,312
2013-11-18,55,39,23,25,20,14,67,47,27,30.15,30.05,29.85,10,10,10,14,7,,0.00,0,,200
2013-11-19,63,48,33,31,26,24,75,54,23,29.82,29.66,29.54,10,10,10,9,4,,0.00,2,,325
2013-11-20,38,26,12,27,18,5,93,81,61,30.44,30.00,29.68,10,6,0,32,17,41,0.00,7,Fog-Snow,353
2013-11-21,18,14,9,7,4,1,79,69,55,30.77,30.51,30.26,10,10,10,28,20,39,0.00,6,Snow,339
2013-11-22,37,22,7,11,2,-12,81,45,24,30.79,30.67,30.60,10,10,10,20,8,26,0.00,0,,330
2013-11-23,32,22,12,16,12,7,92,69,45,30.81,30.65,30.35,10,10,10,18,7,,0.00,1,,165
2013-11-24,51,39,27,24,18,9,59,45,34,30.31,30.09,29.96,10,10,10,22,11,26,0.00,1,,208
2013-11-25,41,35,29,23,17,14,67,48,35,30.36,30.26,30.09,10,10,10,23,16,30,0.00,5,,337
2013-11-26,32,26,21,18,17,14,80,69,45,30.56,30.43,30.28,10,10,10,21,11,29,0.00,4,,34
2013-11-27,55,36,17,28,21,14,85,61,25,30.23,30.11,29.98,10,10,10,25,11,32,0.00,1,,322
2013-11-28,29,23,17,23,19,15,94,90,71,30.40,30.26,30.15,10,5,0,17,9,,0.00,5,Fog,140
2013-11-29,56,37,18,31,22,16,88,62,25,30.16,30.10,30.05,10,10,10,10,5,,0.00,0,,294
2013-11-30,46,37,28,26,23,18,71,59,43,30.22,30.16,30.06,10,10,10,15,6,,0.00,5,,301